Time;durP1;ratioP1;P1;durP2;ratioP2;P2;SDS_P1;SDS_P2;PMS_P1;PMS_P2;Temp;Humidity;BMP_temperature;BMP_pressure;BME280_temperature;BME280_humidity;BME280_pressure;Samples;Min_cycle;Max_cycle;Signal;HPM_P1;HPM_P2
2023/10/02 00:01:51;;;;;;;16.23;8.73;;;22.20;99.90;;;;;;5006383;28;20060;-76
2023/10/02 00:04:18;;;;;;;17.33;9.73;;;22.20;99.90;;;;;;5014438;28;20038;-73
2023/10/02 00:06:44;;;;;;;16.35;9.38;;;22.20;99.90;;;;;;5029203;28;20056;-76
2023/10/02 00:09:11;;;;;;;18.70;9.48;;;22.20;99.90;;;;;;4978379;28;20698;-76
2023/10/02 00:11:39;;;;;;;15.73;8.85;;;22.20;99.90;;;;;;4998982;28;20076;-74
2023/10/02 00:14:18;;;;;;;16.23;10.07;;;22.10;99.90;;;;;;4990796;28;20402;-76
2023/10/02 00:17:03;;;;;;;15.32;8.60;;;22.10;99.90;;;;;;4990949;28;20081;-73
2023/10/02 00:19:39;;;;;;;18.95;10.30;;;22.10;99.90;;;;;;5005360;28;20117;-76
2023/10/02 00:22:09;;;;;;;20.75;10.02;;;22.10;99.90;;;;;;4971629;28;20430;-74
2023/10/02 00:24:39;;;;;;;22.33;11.13;;;22.10;99.90;;;;;;4989819;28;20049;-72
2023/10/02 00:27:07;;;;;;;18.67;11.25;;;22.00;99.90;;;;;;4999111;28;20056;-77
2023/10/02 00:29:33;;;;;;;19.20;11.07;;;22.00;99.90;;;;;;4991252;28;20125;-75
2023/10/02 00:31:59;;;;;;;15.60;9.93;;;22.00;99.90;;;;;;4990556;28;20597;-77
2023/10/02 00:34:32;;;;;;;16.83;9.10;;;22.00;99.90;;;;;;4976664;28;20344;-76
2023/10/02 00:37:05;;;;;;;17.40;10.18;;;22.00;99.90;;;;;;4994489;28;20510;-75
2023/10/02 00:39:35;;;;;;;18.73;10.30;;;22.00;99.90;;;;;;4991191;28;20038;-78
2023/10/02 00:42:22;;;;;;;20.00;10.32;;;22.00;99.90;;;;;;4990707;28;20116;-74
2023/10/02 00:44:55;;;;;;;19.48;10.70;;;22.00;99.90;;;;;;4990480;28;20083;-79
2023/10/02 00:50:10;;;;;;;17.17;10.32;;;22.00;99.90;;;;;;4990201;28;20060;-75
2023/10/02 00:52:58;;;;;;;20.17;11.35;;;22.00;99.90;;;;;;5023156;28;20048;-74
2023/10/02 00:55:32;;;;;;;18.92;10.60;;;22.00;99.90;;;;;;4990366;28;21435;-78
2023/10/02 00:58:01;;;;;;;21.00;11.48;;;22.00;99.90;;;;;;5017684;28;20038;-77
2023/10/02 01:00:35;;;;;;;20.10;11.73;;;21.90;99.90;;;;;;5007452;28;20532;-76
2023/10/02 01:03:15;;;;;;;;;;;22.00;99.90;;;;;;4990996;28;20044;-74
2023/10/02 01:05:42;;;;;;;19.65;10.07;;;22.00;99.90;;;;;;4990735;28;19921;-77
2023/10/02 01:08:24;;;;;;;20.13;10.95;;;22.00;99.90;;;;;;4990429;28;20848;-76
2023/10/02 01:10:58;;;;;;;18.88;11.25;;;21.90;99.90;;;;;;4989527;28;20568;-76
2023/10/02 01:13:35;;;;;;;20.80;11.68;;;21.90;99.90;;;;;;4976730;28;20101;-75
2023/10/02 01:16:08;;;;;;;20.13;10.93;;;21.90;99.90;;;;;;4995192;28;20124;-75
2023/10/02 01:18:38;;;;;;;19.88;11.57;;;21.80;99.90;;;;;;4981890;28;20045;-77
2023/10/02 01:21:14;;;;;;;21.00;12.48;;;21.80;99.90;;;;;;5009175;28;20045;-74
2023/10/02 01:24:08;;;;;;;21.30;11.93;;;21.80;99.90;;;;;;5006796;28;20056;-76
2023/10/02 01:26:40;;;;;;;20.15;11.43;;;21.70;99.90;;;;;;4989844;28;20045;-78
2023/10/02 01:29:07;;;;;;;22.50;12.38;;;21.70;99.90;;;;;;5011718;28;20551;-74
2023/10/02 01:31:35;;;;;;;20.35;11.77;;;21.70;99.90;;;;;;5017780;28;20037;-74
2023/10/02 01:34:04;;;;;;;23.15;11.93;;;21.70;99.90;;;;;;5005541;28;20041;-74
2023/10/02 01:36:31;;;;;;;21.00;12.25;;;21.80;99.90;;;;;;5005004;28;20038;-73
2023/10/02 01:39:12;;;;;;;19.90;11.52;;;21.70;99.90;;;;;;4998455;28;20038;-75
2023/10/02 01:41:38;;;;;;;25.30;11.98;;;21.80;99.90;;;;;;5023283;28;20063;-75
2023/10/02 01:44:10;;;;;;;22.42;11.93;;;21.70;99.90;;;;;;5016788;28;20049;-76
2023/10/02 01:46:49;;;;;;;20.08;11.35;;;21.70;99.90;;;;;;4999487;28;20045;-75
2023/10/02 01:49:24;;;;;;;20.58;11.85;;;21.70;99.90;;;;;;4993149;28;20057;-73
2023/10/02 01:51:55;;;;;;;17.90;10.88;;;21.70;99.90;;;;;;4996384;28;20112;-74
2023/10/02 01:54:22;;;;;;;19.83;11.05;;;21.70;99.90;;;;;;5007794;28;20448;-74
2023/10/02 01:56:49;;;;;;;19.48;10.55;;;21.60;99.90;;;;;;5019414;28;20029;-73
2023/10/02 01:59:19;;;;;;;20.77;12.23;;;21.70;99.90;;;;;;5003441;28;20054;-75
2023/10/02 02:01:54;;;;;;;18.45;11.27;;;21.70;99.90;;;;;;5008418;28;20048;-78
2023/10/02 02:04:32;;;;;;;20.02;12.27;;;21.70;99.90;;;;;;4999544;28;20049;-75
2023/10/02 02:07:00;;;;;;;20.88;12.32;;;21.70;99.90;;;;;;4998799;28;20389;-75
2023/10/02 02:09:30;;;;;;;19.33;11.55;;;21.70;99.90;;;;;;4978742;28;20045;-77
2023/10/02 02:12:06;;;;;;;22.02;11.50;;;21.70;99.90;;;;;;4996198;28;20180;-74
2023/10/02 02:14:49;;;;;;;18.77;11.57;;;21.70;99.90;;;;;;5014372;28;20525;-78
2023/10/02 02:17:17;;;;;;;19.45;10.90;;;21.60;99.90;;;;;;5011705;28;20072;-76
2023/10/02 02:19:48;;;;;;;20.92;12.57;;;21.60;99.90;;;;;;4995734;28;20052;-74
2023/10/02 02:22:25;;;;;;;20.35;12.30;;;21.60;99.90;;;;;;4978628;28;20080;-77
2023/10/02 02:24:51;;;;;;;21.45;10.68;;;21.60;99.90;;;;;;4994869;28;20502;-72
2023/10/02 02:27:20;;;;;;;19.70;12.25;;;21.60;99.90;;;;;;4997051;28;20038;-79
2023/10/02 02:29:54;;;;;;;21.52;12.73;;;21.50;99.90;;;;;;4981656;28;20132;-73
2023/10/02 02:32:20;;;;;;;19.98;11.73;;;21.50;99.90;;;;;;5009614;28;20533;-74
2023/10/02 02:34:47;;;;;;;20.38;12.55;;;21.50;99.90;;;;;;4996507;28;20053;-74
2023/10/02 02:37:13;;;;;;;20.08;11.63;;;21.40;99.90;;;;;;4990513;28;20397;-73
2023/10/02 02:39:39;;;;;;;19.48;11.93;;;21.40;99.90;;;;;;4992987;28;20045;-76
2023/10/02 02:44:48;;;;;;;23.50;12.07;;;21.40;99.90;;;;;;4999131;28;20042;-79
2023/10/02 02:47:19;;;;;;;23.30;12.25;;;21.40;99.90;;;;;;5012267;28;20124;-75
2023/10/02 02:49:58;;;;;;;24.83;14.52;;;21.30;99.90;;;;;;5013868;28;20056;-75
2023/10/02 02:52:26;;;;;;;24.48;13.75;;;21.30;99.90;;;;;;4992140;28;20045;-75
2023/10/02 02:55:14;;;;;;;24.17;13.18;;;21.30;99.90;;;;;;5006012;28;20053;-74
2023/10/02 02:57:45;;;;;;;21.98;11.98;;;21.30;99.90;;;;;;5014644;28;20041;-74
2023/10/02 03:00:29;;;;;;;23.05;13.02;;;21.30;99.90;;;;;;5011211;28;20060;-74
2023/10/02 03:02:57;;;;;;;22.70;12.20;;;21.20;99.90;;;;;;4996582;28;20121;-75
2023/10/02 03:05:37;;;;;;;19.65;11.63;;;21.20;99.90;;;;;;4990024;28;20053;-75
2023/10/02 03:08:05;;;;;;;23.50;12.40;;;21.20;99.90;;;;;;5002205;28;20129;-77
2023/10/02 03:10:40;;;;;;;23.50;12.40;;;21.20;99.90;;;;;;4983897;28;20050;-74
2023/10/02 03:13:15;;;;;;;22.75;12.60;;;21.20;99.90;;;;;;5014760;28;20112;-78
2023/10/02 03:15:53;;;;;;;19.85;12.75;;;21.30;99.90;;;;;;5008185;28;20486;-75
2023/10/02 03:18:30;;;;;;;20.30;12.55;;;21.30;99.90;;;;;;5010398;28;20037;-73
2023/10/02 03:21:14;;;;;;;20.23;12.13;;;21.30;99.90;;;;;;5002640;28;20041;-76
2023/10/02 03:23:42;;;;;;;18.10;11.80;;;21.30;99.90;;;;;;4995951;28;20068;-77
2023/10/02 03:26:27;;;;;;;24.48;12.82;;;21.30;99.90;;;;;;5006660;28;20482;-75
2023/10/02 03:29:03;;;;;;;24.55;13.10;;;21.30;99.90;;;;;;5006904;28;20049;-74
2023/10/02 03:31:43;;;;;;;22.85;13.65;;;21.30;99.90;;;;;;5002081;28;20048;-74
2023/10/02 03:34:28;;;;;;;20.98;12.80;;;21.20;99.90;;;;;;4989901;28;20037;-75
2023/10/02 03:36:59;;;;;;;20.27;11.98;;;21.30;99.90;;;;;;5028446;28;20045;-73
2023/10/02 03:42:25;;;;;;;21.77;13.25;;;21.10;99.90;;;;;;5002114;28;20084;-75
2023/10/02 03:44:54;;;;;;;22.23;13.80;;;21.20;99.90;;;;;;5033612;28;20545;-75
2023/10/02 03:47:20;;;;;;;22.73;12.65;;;21.10;99.90;;;;;;5010654;28;20041;-73
2023/10/02 03:49:47;;;;;;;27.58;14.88;;;21.20;99.90;;;;;;5011910;28;20046;-76
2023/10/02 03:52:14;;;;;;;24.42;13.43;;;21.10;99.90;;;;;;5034749;28;20714;-77
2023/10/02 03:54:43;;;;;;;24.08;14.32;;;21.10;99.90;;;;;;5026066;28;20037;-74
2023/10/02 03:59:54;;;;;;;24.95;13.60;;;21.20;99.90;;;;;;5010781;28;20045;-76
2023/10/02 04:02:25;;;;;;;23.33;12.95;;;21.10;99.90;;;;;;4977057;28;20038;-77
2023/10/02 04:04:51;;;;;;;26.55;14.75;;;21.10;99.90;;;;;;5008996;28;20758;-77
2023/10/02 04:07:20;;;;;;;25.90;14.57;;;21.20;99.90;;;;;;4989917;28;20069;-76
2023/10/02 04:09:55;;;;;;;22.38;13.40;;;21.20;99.90;;;;;;5010191;28;20116;-74
2023/10/02 04:12:22;;;;;;;26.30;14.00;;;21.20;99.90;;;;;;4979204;28;20140;-76
2023/10/02 04:14:48;;;;;;;24.10;14.23;;;21.20;99.90;;;;;;5002086;28;20426;-73
2023/10/02 04:17:21;;;;;;;23.00;13.40;;;21.20;99.90;;;;;;4994800;28;20091;-79
2023/10/02 04:19:51;;;;;;;24.02;14.57;;;21.10;99.90;;;;;;5010461;28;20124;-77
2023/10/02 04:22:22;;;;;;;27.67;14.93;;;21.10;99.90;;;;;;4995345;28;20033;-75
2023/10/02 04:24:58;;;;;;;26.23;14.15;;;21.10;99.90;;;;;;5008534;28;20052;-77
2023/10/02 04:27:27;;;;;;;23.55;14.23;;;21.10;99.90;;;;;;4980162;28;20033;-74
2023/10/02 04:32:32;;;;;;;24.52;13.18;;;21.20;99.90;;;;;;4996498;28;20119;-76
2023/10/02 04:34:58;;;;;;;22.23;12.40;;;21.10;99.90;;;;;;4977437;28;20033;-74
2023/10/02 04:37:24;;;;;;;24.45;13.88;;;21.10;99.90;;;;;;5009997;28;20037;-75
2023/10/02 04:42:25;;;;;;;20.70;13.23;;;21.10;99.90;;;;;;4994553;28;20087;-75
2023/10/02 04:44:57;;;;;;;22.90;12.75;;;21.10;99.90;;;;;;4991306;28;20038;-75
2023/10/02 04:47:26;;;;;;;23.58;13.15;;;21.00;99.90;;;;;;4989685;28;20072;-73
2023/10/02 04:55:28;;;;;;;22.05;13.18;;;21.00;99.90;;;;;;5001185;28;20128;-75
2023/10/02 04:57:56;;;;;;;23.30;14.27;;;21.00;99.90;;;;;;4999339;28;20524;-79
2023/10/02 05:00:32;;;;;;;22.67;13.18;;;21.10;99.90;;;;;;5004657;28;20136;-76
2023/10/02 05:05:48;;;;;;;23.88;13.90;;;21.00;99.90;;;;;;4989497;28;20049;-75
2023/10/02 05:08:19;;;;;;;27.52;14.15;;;21.10;99.90;;;;;;5003549;28;20049;-78
2023/10/02 05:11:04;;;;;;;29.60;15.40;;;21.10;99.90;;;;;;5004820;28;20045;-77
2023/10/02 05:16:14;;;;;;;23.95;12.75;;;21.20;99.90;;;;;;5006386;28;20651;-76
2023/10/02 05:18:47;;;;;;;26.23;13.20;;;21.20;99.90;;;;;;5001061;28;20041;-76
2023/10/02 05:21:17;;;;;;;23.30;13.85;;;21.10;99.90;;;;;;4992548;28;20492;-76
2023/10/02 05:24:02;;;;;;;24.88;13.77;;;21.20;99.90;;;;;;4989929;28;20402;-75
2023/10/02 05:26:39;;;;;;;26.08;14.27;;;21.10;99.90;;;;;;4990828;28;20045;-74
2023/10/02 05:29:07;;;;;;;25.00;14.75;;;21.20;99.90;;;;;;5008205;28;20045;-73
2023/10/02 05:31:40;;;;;;;22.98;13.02;;;21.20;99.90;;;;;;5007629;28;20107;-76
2023/10/02 05:34:21;;;;;;;22.90;13.65;;;21.20;99.90;;;;;;5008789;28;20072;-77
2023/10/02 05:39:39;;;;;;;28.10;13.27;;;21.20;99.90;;;;;;5006144;28;20510;-74
2023/10/02 05:42:14;;;;;;;29.23;14.77;;;21.10;99.90;;;;;;5008051;28;20127;-74
2023/10/02 05:44:42;;;;;;;25.25;15.05;;;21.10;99.90;;;;;;4994412;28;20052;-76
2023/10/02 05:47:09;;;;;;;25.80;14.88;;;21.20;99.90;;;;;;5009502;28;20136;-78
2023/10/02 05:49:37;;;;;;;26.02;13.57;;;21.10;99.90;;;;;;5006597;28;20133;-75
2023/10/02 05:52:07;;;;;;;26.98;13.38;;;21.20;99.90;;;;;;5006739;28;20044;-74
2023/10/02 05:54:36;;;;;;;26.17;13.88;;;21.20;99.90;;;;;;4992386;28;20045;-77
2023/10/02 05:57:08;;;;;;;26.38;14.55;;;21.20;99.90;;;;;;5007215;28;20088;-74
2023/10/02 05:59:45;;;;;;;23.85;13.40;;;21.10;99.90;;;;;;4995539;28;20042;-76
2023/10/02 06:02:17;;;;;;;25.55;14.05;;;21.20;99.90;;;;;;5004188;28;20042;-75
2023/10/02 06:04:47;;;;;;;24.77;14.07;;;21.30;99.90;;;;;;4988054;28;20038;-76
2023/10/02 06:10:25;;;;;;;24.33;13.90;;;21.30;99.90;;;;;;5005822;28;20095;-77
2023/10/02 06:13:05;;;;;;;22.85;14.30;;;21.30;99.90;;;;;;4980901;28;20041;-75
2023/10/02 06:15:49;;;;;;;25.23;14.40;;;21.30;99.90;;;;;;4989206;28;20041;-74
2023/10/02 06:18:24;;;;;;;23.92;14.02;;;21.30;99.90;;;;;;5028121;28;20441;-74
2023/10/02 06:20:59;;;;;;;26.08;14.73;;;21.40;99.90;;;;;;4982170;28;20033;-75
2023/10/02 06:23:29;;;;;;;24.77;14.82;;;21.40;99.90;;;;;;4997258;28;20506;-76
2023/10/02 06:25:58;;;;;;;27.13;14.13;;;21.50;99.90;;;;;;4994356;28;20038;-75
2023/10/02 06:28:27;;;;;;;25.45;14.48;;;21.50;99.90;;;;;;4996819;28;20112;-75
2023/10/02 06:30:56;;;;;;;24.45;14.43;;;21.50;99.90;;;;;;5013427;28;20052;-76
2023/10/02 06:33:22;;;;;;;27.15;14.30;;;21.50;99.90;;;;;;4997467;28;20402;-75
2023/10/02 06:35:57;;;;;;;26.88;15.52;;;21.50;99.90;;;;;;5013664;28;20048;-77
2023/10/02 06:38:30;;;;;;;24.15;14.02;;;21.50;99.90;;;;;;5010438;28;20116;-73
2023/10/02 06:40:59;;;;;;;25.00;15.07;;;21.50;99.90;;;;;;5012597;28;20095;-75
2023/10/02 06:43:29;;;;;;;23.83;15.05;;;21.50;99.90;;;;;;5011931;28;20041;-77
2023/10/02 06:46:13;;;;;;;27.80;15.43;;;21.60;99.90;;;;;;5013478;28;20045;-75
2023/10/02 06:48:43;;;;;;;22.13;14.40;;;21.60;99.90;;;;;;4998448;28;20048;-77
2023/10/02 06:51:13;;;;;;;21.60;13.65;;;21.60;99.90;;;;;;5012129;28;20088;-72
2023/10/02 06:53:40;;;;;;;23.48;14.07;;;21.60;99.90;;;;;;5010376;28;20037;-74
2023/10/02 06:56:13;;;;;;;24.60;14.55;;;21.60;99.90;;;;;;4980462;28;20122;-74
2023/10/02 06:58:49;;;;;;;24.48;14.18;;;21.60;99.90;;;;;;5013402;28;20033;-75
2023/10/02 07:01:18;;;;;;;22.48;14.15;;;21.60;99.90;;;;;;5032640;28;20120;-74
2023/10/02 07:03:51;;;;;;;22.73;13.75;;;21.70;99.90;;;;;;4995542;28;20116;-74
2023/10/02 07:06:21;;;;;;;24.95;13.68;;;21.80;99.90;;;;;;5008484;28;20414;-75
2023/10/02 07:08:48;;;;;;;24.85;13.45;;;21.70;99.90;;;;;;5004768;28;20512;-77
2023/10/02 07:11:18;;;;;;;24.17;14.30;;;21.80;99.90;;;;;;5006930;28;20156;-74
2023/10/02 07:13:56;;;;;;;23.00;14.15;;;21.90;99.90;;;;;;5012699;28;20045;-74
2023/10/02 07:16:22;;;;;;;23.35;14.07;;;21.90;99.90;;;;;;5012012;28;20692;-78
2023/10/02 07:18:53;;;;;;;23.20;13.63;;;22.20;99.90;;;;;;4996303;28;20038;-75
2023/10/02 07:21:19;;;;;;;32.53;15.40;;;22.20;99.90;;;;;;4992845;28;20053;-76
2023/10/02 07:23:45;;;;;;;25.67;13.75;;;22.30;99.90;;;;;;4995854;28;20037;-77
2023/10/02 07:26:45;;;;;;;24.08;14.07;;;22.30;99.90;;;;;;4995751;28;20124;-75
2023/10/02 07:29:04;;;;;;;25.35;13.75;;;22.40;99.90;;;;;;5011892;28;20053;-76
2023/10/02 07:31:30;;;;;;;26.23;13.95;;;22.50;99.90;;;;;;4990794;28;20098;-77
2023/10/02 07:33:55;;;;;;;26.02;13.63;;;22.70;99.90;;;;;;4996090;28;20457;-76
2023/10/02 07:36:26;;;;;;;22.42;13.48;;;22.60;99.90;;;;;;4995324;28;20060;-76
2023/10/02 07:38:53;;;;;;;22.85;13.02;;;22.70;99.90;;;;;;5010925;28;20128;-78
2023/10/02 07:41:25;;;;;;;22.98;13.85;;;22.80;99.90;;;;;;4995386;28;20045;-77
2023/10/02 07:44:07;;;;;;;24.92;13.90;;;23.00;99.90;;;;;;4979320;28;20111;-76
2023/10/02 07:46:33;;;;;;;24.17;14.25;;;23.10;99.90;;;;;;5010999;28;20049;-74
2023/10/02 07:49:04;;;;;;;24.90;13.90;;;23.20;99.90;;;;;;4994960;28;20102;-73
2023/10/02 07:51:37;;;;;;;23.38;13.82;;;23.30;99.90;;;;;;4995675;28;20520;-76
2023/10/02 07:54:04;;;;;;;22.27;13.43;;;23.30;99.90;;;;;;5011966;28;20113;-75
2023/10/02 07:56:30;;;;;;;22.80;13.75;;;23.40;99.90;;;;;;4994698;28;20129;-76
2023/10/02 07:59:00;;;;;;;23.15;13.52;;;23.40;99.90;;;;;;5009598;28;20466;-76
2023/10/02 08:01:27;;;;;;;23.60;13.50;;;23.40;99.90;;;;;;5011241;28;20522;-77
2023/10/02 08:03:55;;;;;;;26.45;14.40;;;23.50;99.90;;;;;;4995304;28;20128;-77
2023/10/02 08:11:57;;;;;;;27.42;14.90;;;23.60;99.90;;;;;;4941093;28;20052;-76
2023/10/02 08:17:22;;;;;;;23.95;14.30;;;23.60;99.90;;;;;;4982135;28;20033;-74
2023/10/02 08:19:54;;;;;;;25.23;14.50;;;23.80;99.90;;;;;;5004245;28;20437;-76
2023/10/02 08:22:23;;;;;;;22.70;14.23;;;23.80;99.90;;;;;;5010804;28;20041;-74
2023/10/02 08:24:52;;;;;;;26.15;15.07;;;23.80;99.90;;;;;;5011166;28;20041;-75
2023/10/02 08:27:19;;;;;;;25.15;14.45;;;23.90;99.90;;;;;;5003948;28;20060;-77
2023/10/02 08:29:44;;;;;;;23.58;14.60;;;24.00;99.90;;;;;;5010151;28;20040;-77
2023/10/02 08:32:11;;;;;;;24.65;13.98;;;24.10;99.90;;;;;;4995386;28;20041;-78
2023/10/02 08:34:37;;;;;;;25.20;15.13;;;24.00;99.90;;;;;;5010802;28;20030;-77
2023/10/02 08:37:07;;;;;;;27.73;14.18;;;24.10;99.90;;;;;;4994953;28;20072;-77
2023/10/02 08:39:43;;;;;;;24.75;13.45;;;24.10;99.90;;;;;;5010814;28;20129;-77
2023/10/02 08:42:11;;;;;;;21.00;11.82;;;24.30;99.90;;;;;;5010763;28;20076;-75
2023/10/02 08:44:40;;;;;;;24.63;14.15;;;24.40;99.90;;;;;;4991222;28;20099;-76
2023/10/02 08:47:07;;;;;;;26.40;15.15;;;24.30;99.90;;;;;;5010339;28;20045;-75
2023/10/02 08:49:34;;;;;;;23.65;13.80;;;24.50;99.90;;;;;;5010483;28;20037;-76
2023/10/02 08:52:03;;;;;;;24.63;14.10;;;24.60;99.90;;;;;;5010776;28;20512;-74
2023/10/02 08:54:31;;;;;;;26.73;14.23;;;24.60;99.90;;;;;;5010615;28;20495;-76
2023/10/02 08:57:08;;;;;;;23.23;14.43;;;24.80;99.90;;;;;;5009533;28;20044;-76
2023/10/02 08:59:38;;;;;;;22.30;13.65;;;24.90;99.90;;;;;;5006673;28;20050;-78
2023/10/02 09:02:16;;;;;;;25.98;14.60;;;24.90;99.90;;;;;;4995020;28;20049;-75
2023/10/02 09:04:57;;;;;;;23.08;13.82;;;24.80;99.90;;;;;;4978324;28;20046;-79
2023/10/02 09:10:24;;;;;;;25.00;14.80;;;24.80;99.90;;;;;;5010221;28;20037;-78
2023/10/02 09:13:09;;;;;;;27.02;15.80;;;24.80;99.90;;;;;;5007745;28;20045;-77
2023/10/02 09:15:35;;;;;;;26.75;15.40;;;24.60;99.90;;;;;;5009762;28;20060;-79
2023/10/02 09:18:19;;;;;;;26.23;15.75;;;24.70;99.90;;;;;;5010152;28;20057;-76
2023/10/02 09:21:04;;;;;;;26.98;14.98;;;24.90;99.90;;;;;;5010531;28;20042;-75
2023/10/02 09:23:30;;;;;;;;;;;25.00;99.90;;;;;;4994479;28;20048;-75
2023/10/02 09:26:17;;;;;;;23.27;14.15;;;25.10;99.90;;;;;;5029788;28;19917;-75
2023/10/02 09:28:56;;;;;;;29.38;16.13;;;25.30;99.90;;;;;;5012089;28;20132;-73
2023/10/02 09:31:24;;;;;;;28.55;14.57;;;25.40;99.90;;;;;;4994208;28;20045;-75
2023/10/02 09:33:51;;;;;;;25.83;15.60;;;25.60;99.90;;;;;;4995304;28;20026;-75
2023/10/02 09:36:34;;;;;;;27.20;15.30;;;25.70;99.90;;;;;;4994033;28;20037;-80
2023/10/02 09:39:31;;;;;;;25.55;14.18;;;25.70;99.90;;;;;;4995335;28;20037;-75
2023/10/02 09:41:53;;;;;;;27.38;15.27;;;25.70;99.90;;;;;;5006999;28;20739;-78
2023/10/02 09:44:27;;;;;;;23.50;14.48;;;25.80;99.90;;;;;;5012861;28;20045;-74
2023/10/02 09:46:53;;;;;;;27.10;15.40;;;25.80;99.90;;;;;;5016169;28;20108;-75
2023/10/02 09:49:30;;;;;;;27.65;16.13;;;25.70;99.90;;;;;;5019594;28;20049;-75
2023/10/02 09:52:15;;;;;;;22.10;14.20;;;25.60;99.90;;;;;;5017967;28;20068;-78
2023/10/02 09:55:07;;;;;;;24.10;14.35;;;25.60;99.90;;;;;;5027726;28;20036;-74
2023/10/02 09:57:49;;;;;;;23.30;14.23;;;25.40;99.90;;;;;;4996572;28;20037;-76
2023/10/02 10:00:34;;;;;;;25.63;14.05;;;25.40;99.90;;;;;;5016099;28;20037;-75
2023/10/02 10:03:22;;;;;;;27.98;14.88;;;25.40;99.90;;;;;;5014410;28;20154;-78
2023/10/02 10:06:06;;;;;;;29.08;14.52;;;25.60;99.90;;;;;;5008675;28;20076;-76
2023/10/02 10:12:21;;;;;;;24.65;13.45;;;26.00;99.90;;;;;;5030653;28;20430;-77
2023/10/02 10:14:54;;;;;;;23.75;14.77;;;26.30;99.90;;;;;;5011888;28;20037;-79
2023/10/02 10:17:21;;;;;;;28.35;14.80;;;26.30;99.90;;;;;;5013377;28;20132;-75
2023/10/02 10:22:40;;;;;;;23.73;14.52;;;26.20;99.90;;;;;;5012886;28;20132;-76
2023/10/02 10:25:32;;;;;;;25.75;14.02;;;26.00;99.90;;;;;;4997545;28;20129;-74
2023/10/02 10:28:00;;;;;;;25.02;12.82;;;26.00;99.90;;;;;;5013656;28;20510;-76
2023/10/02 10:33:01;;;;;;;25.60;13.70;;;26.10;99.90;;;;;;5013702;28;20033;-73
2023/10/02 10:35:31;;;;;;;26.77;13.88;;;26.20;99.90;;;;;;5013085;28;20045;-78
2023/10/02 10:37:56;;;;;;;25.50;14.68;;;26.20;99.90;;;;;;5008692;28;20045;-78
2023/10/02 10:40:44;;;;;;;24.15;13.50;;;26.20;99.90;;;;;;5010505;28;20044;-76
2023/10/02 10:43:17;;;;;;;22.30;14.50;;;26.40;99.90;;;;;;4993561;28;20037;-74
2023/10/02 10:45:48;;;;;;;1612.60;506.45;;;26.60;99.90;;;;;;5012865;28;20045;-79
2023/10/02 10:48:22;;;;;;;953.92;267.98;;;26.60;99.90;;;;;;5013336;28;20128;-77
2023/10/02 10:50:59;;;;;;;1372.13;354.00;;;26.60;99.90;;;;;;5012036;28;20053;-75
2023/10/02 10:53:28;;;;;;;124.57;42.97;;;26.50;99.90;;;;;;5011320;28;20303;-75
2023/10/02 10:56:19;;;;;;;91.95;27.30;;;26.60;99.90;;;;;;4996546;28;20041;-77
2023/10/02 10:58:47;;;;;;;258.67;80.20;;;26.60;99.90;;;;;;4999262;28;20037;-76
2023/10/02 11:01:16;;;;;;;31.65;16.25;;;26.60;99.90;;;;;;4996814;28;20129;-75
2023/10/02 11:03:49;;;;;;;25.42;13.85;;;26.50;99.90;;;;;;5012300;28;20373;-75
2023/10/02 11:06:17;;;;;;;60.55;20.45;;;26.40;99.90;;;;;;5012205;28;20038;-75
2023/10/02 11:09:12;;;;;;;28.50;14.95;;;26.20;99.90;;;;;;4995895;28;20120;-77
2023/10/02 11:11:50;;;;;;;27.08;15.55;;;26.30;99.90;;;;;;5011034;28;20049;-77
2023/10/02 11:14:22;;;;;;;24.17;14.98;;;26.30;99.90;;;;;;5002246;28;20207;-74
2023/10/02 11:16:53;;;;;;;25.27;15.07;;;26.40;99.90;;;;;;4995356;28;20065;-75
2023/10/02 11:19:26;;;;;;;30.40;16.98;;;26.30;99.90;;;;;;4997086;28;20045;-76
2023/10/02 11:22:01;;;;;;;25.83;15.23;;;26.30;99.90;;;;;;5012675;28;20071;-77
2023/10/02 11:24:27;;;;;;;28.00;15.52;;;26.40;99.90;;;;;;5034075;28;20129;-77
2023/10/02 11:27:04;;;;;;;25.70;15.75;;;26.40;99.90;;;;;;4995188;28;20045;-73
2023/10/02 11:29:42;;;;;;;28.05;16.02;;;26.40;99.90;;;;;;5012434;28;20103;-76
2023/10/02 11:34:50;;;;;;;22.27;13.88;;;26.40;99.90;;;;;;5032083;28;20125;-74
2023/10/02 11:37:17;;;;;;;26.85;15.52;;;26.50;99.90;;;;;;5012490;28;20524;-76
2023/10/02 11:39:44;;;;;;;25.23;15.27;;;26.40;99.90;;;;;;5012147;28;20114;-74
2023/10/02 11:42:09;;;;;;;23.38;14.85;;;26.50;99.90;;;;;;5012369;28;20474;-78
2023/10/02 11:44:38;;;;;;;22.23;14.52;;;26.60;99.90;;;;;;5011137;28;20045;-76
2023/10/02 11:47:04;;;;;;;24.65;14.75;;;26.60;99.90;;;;;;4996224;28;20053;-77
2023/10/02 11:49:30;;;;;;;25.65;15.63;;;26.80;99.90;;;;;;4979377;28;20478;-77
2023/10/02 11:52:02;;;;;;;23.30;14.90;;;26.70;99.90;;;;;;4995811;28;20504;-76
2023/10/02 11:54:28;;;;;;;21.33;14.35;;;26.80;99.90;;;;;;5004300;28;20045;-77
2023/10/02 11:56:54;;;;;;;24.83;16.05;;;26.90;99.90;;;;;;4995595;28;20784;-75
2023/10/02 11:59:20;;;;;;;26.63;15.13;;;26.90;99.90;;;;;;4995333;28;20124;-75
2023/10/02 12:01:47;;;;;;;24.20;14.93;;;27.00;99.90;;;;;;4963104;28;20227;-76
2023/10/02 12:04:16;;;;;;;26.73;16.27;;;27.00;99.90;;;;;;5011290;28;20472;-76
2023/10/02 12:06:42;;;;;;;25.20;16.30;;;26.90;99.90;;;;;;4995049;28;20056;-76
2023/10/02 12:09:17;;;;;;;27.77;16.05;;;26.80;99.90;;;;;;4988752;28;20046;-75
2023/10/02 12:11:43;;;;;;;27.38;17.35;;;26.90;99.90;;;;;;5011098;28;20061;-78
2023/10/02 12:14:09;;;;;;;26.05;17.08;;;26.90;99.90;;;;;;4979696;28;20042;-76
2023/10/02 12:16:34;;;;;;;28.50;16.67;;;26.90;99.90;;;;;;5011023;28;20681;-76
2023/10/02 12:19:00;;;;;;;26.90;16.52;;;26.90;99.90;;;;;;4994799;28;20175;-76
2023/10/02 12:21:26;;;;;;;25.58;16.10;;;26.80;99.90;;;;;;5008578;28;20428;-74
2023/10/02 12:23:52;;;;;;;27.50;17.05;;;26.80;99.90;;;;;;5010542;28;20520;-75
2023/10/02 12:26:19;;;;;;;29.73;16.83;;;26.80;99.90;;;;;;5011032;28;20041;-75
2023/10/02 12:28:46;;;;;;;26.42;16.83;;;26.80;99.90;;;;;;4994574;28;20124;-75
2023/10/02 12:31:14;;;;;;;26.75;16.98;;;26.80;99.90;;;;;;5011677;28;20382;-75
2023/10/02 12:33:44;;;;;;;26.88;18.30;;;26.70;99.90;;;;;;5008850;28;20038;-77
2023/10/02 12:36:17;;;;;;;25.38;18.25;;;26.80;99.90;;;;;;4993805;28;20040;-76
2023/10/02 12:38:44;;;;;;;25.88;16.67;;;26.80;99.90;;;;;;5010963;28;20040;-77
2023/10/02 12:41:30;;;;;;;26.65;17.25;;;26.90;99.90;;;;;;4994757;28;20041;-78
2023/10/02 12:43:56;;;;;;;27.70;18.30;;;26.90;99.90;;;;;;5009081;28;20099;-74
2023/10/02 12:46:27;;;;;;;27.42;18.38;;;26.90;99.90;;;;;;5035448;28;20137;-78
2023/10/02 12:49:04;;;;;;;23.50;16.73;;;26.80;99.90;;;;;;5010830;28;20025;-78
2023/10/02 12:51:31;;;;;;;24.33;18.00;;;26.80;99.90;;;;;;5011029;28;20052;-75
2023/10/02 12:53:56;;;;;;;23.17;16.60;;;26.90;99.90;;;;;;4994261;28;20091;-76
2023/10/02 12:56:24;;;;;;;23.08;15.60;;;26.80;99.90;;;;;;5009908;28;20037;-76
2023/10/02 12:58:54;;;;;;;26.13;16.67;;;26.80;99.90;;;;;;4992817;28;20148;-74
2023/10/02 13:01:24;;;;;;;23.63;17.55;;;26.90;99.90;;;;;;5011015;28;20060;-76
2023/10/02 13:03:54;;;;;;;24.77;17.42;;;26.90;99.90;;;;;;5010412;28;20120;-74
2023/10/02 13:06:22;;;;;;;25.60;16.67;;;26.80;99.90;;;;;;4994058;28;20093;-78
2023/10/02 13:08:47;;;;;;;25.17;16.15;;;26.80;99.90;;;;;;5001728;28;20109;-75
2023/10/02 13:11:18;;;;;;;25.20;17.13;;;26.80;99.90;;;;;;4993586;28;20525;-79
2023/10/02 13:13:46;;;;;;;25.30;15.70;;;26.80;99.90;;;;;;5000129;28;20538;-78
2023/10/02 13:16:19;;;;;;;25.27;16.27;;;26.90;99.90;;;;;;4993796;28;20103;-75
2023/10/02 13:18:45;;;;;;;23.90;16.38;;;26.90;99.90;;;;;;4998700;28;20113;-80
2023/10/02 13:21:14;;;;;;;22.60;15.65;;;26.80;99.90;;;;;;4979528;28;20116;-73
2023/10/02 13:23:41;;;;;;;27.10;15.60;;;26.90;99.90;;;;;;4982099;28;20042;-74
2023/10/02 13:26:10;;;;;;;20.50;14.50;;;27.00;99.90;;;;;;4995019;28;20055;-78
2023/10/02 13:28:37;;;;;;;23.20;15.43;;;26.90;99.90;;;;;;4986941;28;20040;-76
2023/10/02 13:31:13;;;;;;;21.73;14.65;;;26.80;99.90;;;;;;4979036;28;20659;-79
2023/10/02 13:33:52;;;;;;;24.73;15.57;;;26.90;99.90;;;;;;4999068;28;20061;-78
2023/10/02 13:36:25;;;;;;;22.38;15.77;;;27.00;99.90;;;;;;4995769;28;20066;-76
2023/10/02 13:38:58;;;;;;;19.70;14.40;;;27.00;99.90;;;;;;5000336;28;20827;-75
2023/10/02 13:41:28;;;;;;;23.00;13.90;;;26.90;99.90;;;;;;5012112;28;20043;-77
2023/10/02 13:43:58;;;;;;;22.60;14.38;;;26.90;99.90;;;;;;4985008;28;20073;-76
2023/10/02 13:46:24;;;;;;;22.73;14.88;;;27.00;99.90;;;;;;4991117;28;20088;-76
2023/10/02 13:48:53;;;;;;;24.20;14.93;;;27.00;99.90;;;;;;5019278;28;20494;-76